LIBP/PSR METAR and TAF weather

Enter ICAO airport designator
Station Type Date Time Source
LIBP METAR 2019/02/16 02:50 UTC NOAA

LIBP 160250Z AUTO 22005KT 9999 NCD 02/00 Q1031


Station Type Date Time Source
LIBP Decoded METAR 2019/02/16 02:50 UTC NOAA

Pescara, Italy (LIBP) 42-26N 014-12E 11M
Feb 15, 2019 - 09:50 PM EST / 2019.02.16 0250 UTC
Wind: from the SW (220 degrees) at 6 MPH (5 KT):0
Visibility: greater than 7 mile(s):0
Temperature: 35 F (2 C)
Windchill: 30 F (-1 C):1
Dew Point: 32 F (0 C)
Relative Humidity: 86%
Pressure (altimeter): 30.45 in. Hg (1031 hPa)
ob: LIBP 160250Z AUTO 22005KT 9999 NCD 02/00 Q1031
cycle: 3

Station Type Date Time Source
LIBP TAF 2019/02/15 19:30 UTC NOAA

TAF
AMD LIBP 151921Z 1519/1618 VRB05KT CAVOK
BECMG 1608/1610 36010KT


Example: see airport list